Gran Canaria

Airport
ICAO code: 
GCLP
Summary
ICAO Region: 
EUR
Territory: 
Location: 
Gran Canaria,
Coordinates: 
Aerial View: 
27° 55' 54.84" N, 15° 23' 11.758" W
Airport RE: 
Crosswind Landings
Metar
Observation
GCLP 281030Z 36016KT 9999 FEW030 SCT040 20/14 Q1025 NOSIG
Station
Gran Canaria - Canary Islands
Date/Time
2021-11-28 10:30:00
Wind direction
360°
Wind speed
16 kts
Lowest cloud amount
few clouds
Temperature
20°C
Dew point
14°C
Humidity
68%
QNH
1025 hPa
Weather condition
n/a

Description

International airport serving Las Palmas and the island of Gran Canaria.

Climatology

Dry-summer subtropical ”Mediterranean" climate (Köppen climate classification Csa) - characterized by hot, dry summers and mild winters. During the summer, subtropical high pressure cells dominate, making rainfall unlikely except for the occasional thunderstorm. In the winter, periodic storms bring rain (snow at higher elevations).

Runways

Designator Length Width Surface Rops
03L/21R 3100 45 ASP Yes/Yes
03R/21L 3100 45 ASP Yes/Yes
Airport map: 
Aerial View: 

Accidents and Serious Incidents at or in the vicinity of GCLP

SKYbrary Partners:

Safety knowledge contributed by: